sensor_id;sensor_type;location;lat;lon;timestamp;P1;durP1;ratioP1;P2;durP2;ratioP2
12962;SDS011;6546;49.882;8.666;2023-02-28T00:01:19;2.87;;;1.97;;
12962;SDS011;6546;49.882;8.666;2023-02-28T00:03:46;2.03;;;1.90;;
12962;SDS011;6546;49.882;8.666;2023-02-28T00:06:13;2.70;;;1.90;;
12962;SDS011;6546;49.882;8.666;2023-02-28T00:08:40;3.73;;;1.80;;
12962;SDS011;6546;49.882;8.666;2023-02-28T00:11:10;3.17;;;2.40;;
12962;SDS011;6546;49.882;8.666;2023-02-28T00:13:39;2.30;;;1.93;;
12962;SDS011;6546;49.882;8.666;2023-02-28T00:16:08;2.73;;;2.10;;
12962;SDS011;6546;49.882;8.666;2023-02-28T00:18:38;2.70;;;2.50;;
12962;SDS011;6546;49.882;8.666;2023-02-28T00:21:05;3.40;;;2.13;;
12962;SDS011;6546;49.882;8.666;2023-02-28T00:23:33;3.40;;;2.07;;
12962;SDS011;6546;49.882;8.666;2023-02-28T00:26:00;2.63;;;2.20;;
12962;SDS011;6546;49.882;8.666;2023-02-28T00:28:29;2.10;;;1.90;;
12962;SDS011;6546;49.882;8.666;2023-02-28T00:30:56;2.47;;;2.00;;
12962;SDS011;6546;49.882;8.666;2023-02-28T00:33:24;2.97;;;2.13;;
12962;SDS011;6546;49.882;8.666;2023-02-28T00:35:51;2.43;;;2.23;;
12962;SDS011;6546;49.882;8.666;2023-02-28T00:38:18;3.13;;;2.30;;
12962;SDS011;6546;49.882;8.666;2023-02-28T00:40:45;2.53;;;2.20;;
12962;SDS011;6546;49.882;8.666;2023-02-28T00:43:11;3.30;;;2.23;;
12962;SDS011;6546;49.882;8.666;2023-02-28T00:45:40;3.67;;;2.20;;
12962;SDS011;6546;49.882;8.666;2023-02-28T00:48:07;2.50;;;2.20;;
12962;SDS011;6546;49.882;8.666;2023-02-28T00:50:33;2.87;;;2.10;;
12962;SDS011;6546;49.882;8.666;2023-02-28T00:53:00;2.07;;;1.87;;
12962;SDS011;6546;49.882;8.666;2023-02-28T00:55:27;2.30;;;2.10;;
12962;SDS011;6546;49.882;8.666;2023-02-28T00:57:53;4.37;;;2.37;;
12962;SDS011;6546;49.882;8.666;2023-02-28T01:00:20;3.00;;;2.50;;
12962;SDS011;6546;49.882;8.666;2023-02-28T01:02:48;2.60;;;1.90;;
12962;SDS011;6546;49.882;8.666;2023-02-28T01:05:15;4.33;;;2.40;;
12962;SDS011;6546;49.882;8.666;2023-02-28T01:07:42;3.43;;;2.27;;
12962;SDS011;6546;49.882;8.666;2023-02-28T01:10:09;3.83;;;2.27;;
12962;SDS011;6546;49.882;8.666;2023-02-28T01:12:37;2.50;;;2.00;;
12962;SDS011;6546;49.882;8.666;2023-02-28T01:15:04;4.50;;;2.43;;
12962;SDS011;6546;49.882;8.666;2023-02-28T01:17:31;4.37;;;2.50;;
12962;SDS011;6546;49.882;8.666;2023-02-28T01:19:59;2.40;;;2.07;;
12962;SDS011;6546;49.882;8.666;2023-02-28T01:22:25;4.70;;;2.60;;
12962;SDS011;6546;49.882;8.666;2023-02-28T01:24:52;4.47;;;2.50;;
12962;SDS011;6546;49.882;8.666;2023-02-28T01:27:19;2.53;;;2.10;;
12962;SDS011;6546;49.882;8.666;2023-02-28T01:29:46;2.90;;;2.13;;
12962;SDS011;6546;49.882;8.666;2023-02-28T01:32:13;2.47;;;2.07;;
12962;SDS011;6546;49.882;8.666;2023-02-28T01:34:39;2.20;;;2.00;;
12962;SDS011;6546;49.882;8.666;2023-02-28T01:37:08;3.70;;;2.50;;
12962;SDS011;6546;49.882;8.666;2023-02-28T01:39:35;2.70;;;2.10;;
12962;SDS011;6546;49.882;8.666;2023-02-28T01:42:02;2.80;;;2.60;;
12962;SDS011;6546;49.882;8.666;2023-02-28T01:47:23;3.27;;;2.23;;
12962;SDS011;6546;49.882;8.666;2023-02-28T01:49:55;3.40;;;2.37;;
12962;SDS011;6546;49.882;8.666;2023-02-28T01:52:28;3.00;;;2.47;;
12962;SDS011;6546;49.882;8.666;2023-02-28T01:54:57;3.57;;;2.73;;
12962;SDS011;6546;49.882;8.666;2023-02-28T01:57:27;3.10;;;2.47;;
12962;SDS011;6546;49.882;8.666;2023-02-28T02:00:07;5.37;;;3.00;;
12962;SDS011;6546;49.882;8.666;2023-02-28T02:02:38;2.97;;;2.60;;
12962;SDS011;6546;49.882;8.666;2023-02-28T02:05:07;2.97;;;2.60;;
12962;SDS011;6546;49.882;8.666;2023-02-28T02:07:37;3.30;;;2.83;;
12962;SDS011;6546;49.882;8.666;2023-02-28T02:10:10;4.37;;;3.30;;
12962;SDS011;6546;49.882;8.666;2023-02-28T02:12:47;4.47;;;3.23;;
12962;SDS011;6546;49.882;8.666;2023-02-28T02:15:32;5.07;;;3.77;;
12962;SDS011;6546;49.882;8.666;2023-02-28T02:18:04;3.67;;;3.13;;
12962;SDS011;6546;49.882;8.666;2023-02-28T02:26:44;4.00;;;3.47;;
12962;SDS011;6546;49.882;8.666;2023-02-28T02:29:34;4.00;;;3.60;;
12962;SDS011;6546;49.882;8.666;2023-02-28T02:35:27;3.63;;;3.33;;
12962;SDS011;6546;49.882;8.666;2023-02-28T02:37:59;3.23;;;2.93;;
12962;SDS011;6546;49.882;8.666;2023-02-28T02:40:35;3.30;;;3.00;;
12962;SDS011;6546;49.882;8.666;2023-02-28T02:43:06;3.93;;;2.97;;
12962;SDS011;6546;49.882;8.666;2023-02-28T02:45:40;3.40;;;2.97;;
12962;SDS011;6546;49.882;8.666;2023-02-28T02:48:11;5.40;;;3.23;;
12962;SDS011;6546;49.882;8.666;2023-02-28T02:50:43;3.93;;;3.10;;
12962;SDS011;6546;49.882;8.666;2023-02-28T02:53:12;3.43;;;2.93;;
12962;SDS011;6546;49.882;8.666;2023-02-28T02:55:44;3.60;;;2.70;;
12962;SDS011;6546;49.882;8.666;2023-02-28T02:58:18;3.63;;;3.17;;
12962;SDS011;6546;49.882;8.666;2023-02-28T03:00:49;3.30;;;2.90;;
12962;SDS011;6546;49.882;8.666;2023-02-28T03:03:19;3.37;;;2.60;;
12962;SDS011;6546;49.882;8.666;2023-02-28T03:05:55;3.53;;;3.20;;
12962;SDS011;6546;49.882;8.666;2023-02-28T03:08:22;4.37;;;3.03;;
12962;SDS011;6546;49.882;8.666;2023-02-28T03:10:49;3.23;;;2.90;;
12962;SDS011;6546;49.882;8.666;2023-02-28T03:13:26;4.97;;;3.10;;
12962;SDS011;6546;49.882;8.666;2023-02-28T03:16:19;4.20;;;2.77;;
12962;SDS011;6546;49.882;8.666;2023-02-28T03:18:57;3.07;;;2.77;;
12962;SDS011;6546;49.882;8.666;2023-02-28T03:21:35;3.97;;;2.90;;
12962;SDS011;6546;49.882;8.666;2023-02-28T03:24:07;3.63;;;2.90;;
12962;SDS011;6546;49.882;8.666;2023-02-28T03:26:38;3.80;;;2.67;;
12962;SDS011;6546;49.882;8.666;2023-02-28T03:29:10;3.57;;;2.77;;
12962;SDS011;6546;49.882;8.666;2023-02-28T03:31:43;3.27;;;2.90;;
12962;SDS011;6546;49.882;8.666;2023-02-28T03:34:15;3.50;;;2.93;;
12962;SDS011;6546;49.882;8.666;2023-02-28T03:36:51;3.40;;;3.00;;
12962;SDS011;6546;49.882;8.666;2023-02-28T03:39:21;3.23;;;2.93;;
12962;SDS011;6546;49.882;8.666;2023-02-28T03:41:54;4.13;;;2.70;;
12962;SDS011;6546;49.882;8.666;2023-02-28T03:44:26;4.07;;;3.67;;
12962;SDS011;6546;49.882;8.666;2023-02-28T03:46:59;3.30;;;3.00;;
12962;SDS011;6546;49.882;8.666;2023-02-28T03:49:30;4.47;;;3.10;;
12962;SDS011;6546;49.882;8.666;2023-02-28T03:52:02;3.57;;;3.27;;
12962;SDS011;6546;49.882;8.666;2023-02-28T03:54:33;3.37;;;3.07;;
12962;SDS011;6546;49.882;8.666;2023-02-28T03:57:08;3.47;;;3.17;;
12962;SDS011;6546;49.882;8.666;2023-02-28T03:59:42;4.97;;;3.47;;
12962;SDS011;6546;49.882;8.666;2023-02-28T04:02:11;3.70;;;3.17;;
12962;SDS011;6546;49.882;8.666;2023-02-28T04:04:37;3.63;;;3.30;;
12962;SDS011;6546;49.882;8.666;2023-02-28T04:07:11;4.03;;;3.63;;
12962;SDS011;6546;49.882;8.666;2023-02-28T04:09:38;3.77;;;3.47;;
12962;SDS011;6546;49.882;8.666;2023-02-28T04:12:05;4.27;;;3.40;;
12962;SDS011;6546;49.882;8.666;2023-02-28T04:14:31;4.60;;;3.63;;
12962;SDS011;6546;49.882;8.666;2023-02-28T04:16:58;3.70;;;3.40;;
12962;SDS011;6546;49.882;8.666;2023-02-28T04:19:25;4.57;;;4.17;;
12962;SDS011;6546;49.882;8.666;2023-02-28T04:21:52;5.00;;;3.93;;
12962;SDS011;6546;49.882;8.666;2023-02-28T04:24:22;3.97;;;3.67;;
12962;SDS011;6546;49.882;8.666;2023-02-28T04:26:50;4.00;;;3.60;;
12962;SDS011;6546;49.882;8.666;2023-02-28T04:29:20;4.17;;;3.57;;
12962;SDS011;6546;49.882;8.666;2023-02-28T04:31:48;4.03;;;3.70;;
12962;SDS011;6546;49.882;8.666;2023-02-28T04:34:15;5.57;;;3.83;;
12962;SDS011;6546;49.882;8.666;2023-02-28T04:36:44;4.67;;;3.53;;
12962;SDS011;6546;49.882;8.666;2023-02-28T04:39:11;5.63;;;3.80;;
12962;SDS011;6546;49.882;8.666;2023-02-28T04:41:39;3.97;;;3.40;;
12962;SDS011;6546;49.882;8.666;2023-02-28T04:44:05;4.77;;;3.70;;
12962;SDS011;6546;49.882;8.666;2023-02-28T04:46:32;4.77;;;3.47;;
12962;SDS011;6546;49.882;8.666;2023-02-28T04:48:58;4.60;;;3.50;;
12962;SDS011;6546;49.882;8.666;2023-02-28T04:51:25;4.03;;;3.63;;
12962;SDS011;6546;49.882;8.666;2023-02-28T04:53:52;3.87;;;3.43;;
12962;SDS011;6546;49.882;8.666;2023-02-28T04:56:19;4.23;;;3.83;;
12962;SDS011;6546;49.882;8.666;2023-02-28T04:58:47;3.70;;;3.30;;
12962;SDS011;6546;49.882;8.666;2023-02-28T05:01:21;4.20;;;3.80;;
12962;SDS011;6546;49.882;8.666;2023-02-28T05:03:49;4.33;;;3.77;;
12962;SDS011;6546;49.882;8.666;2023-02-28T05:06:17;6.40;;;4.43;;
12962;SDS011;6546;49.882;8.666;2023-02-28T05:08:48;5.50;;;4.10;;
12962;SDS011;6546;49.882;8.666;2023-02-28T05:11:16;4.87;;;4.33;;
12962;SDS011;6546;49.882;8.666;2023-02-28T05:13:44;4.67;;;3.80;;
12962;SDS011;6546;49.882;8.666;2023-02-28T05:16:13;4.97;;;3.80;;
12962;SDS011;6546;49.882;8.666;2023-02-28T05:18:40;4.63;;;3.37;;
12962;SDS011;6546;49.882;8.666;2023-02-28T05:21:12;4.60;;;3.33;;
12962;SDS011;6546;49.882;8.666;2023-02-28T05:23:50;3.90;;;3.43;;
12962;SDS011;6546;49.882;8.666;2023-02-28T05:26:16;3.50;;;3.20;;
12962;SDS011;6546;49.882;8.666;2023-02-28T05:28:43;4.40;;;4.00;;
12962;SDS011;6546;49.882;8.666;2023-02-28T05:31:11;4.10;;;3.70;;
12962;SDS011;6546;49.882;8.666;2023-02-28T05:33:38;5.07;;;3.37;;
12962;SDS011;6546;49.882;8.666;2023-02-28T05:36:05;5.13;;;3.60;;
12962;SDS011;6546;49.882;8.666;2023-02-28T05:38:32;5.23;;;3.83;;
12962;SDS011;6546;49.882;8.666;2023-02-28T05:40:59;3.93;;;3.57;;
12962;SDS011;6546;49.882;8.666;2023-02-28T05:43:26;3.50;;;3.20;;
12962;SDS011;6546;49.882;8.666;2023-02-28T05:45:52;4.67;;;3.43;;
12962;SDS011;6546;49.882;8.666;2023-02-28T05:48:20;4.27;;;3.87;;
12962;SDS011;6546;49.882;8.666;2023-02-28T05:50:47;3.87;;;3.40;;
12962;SDS011;6546;49.882;8.666;2023-02-28T05:53:13;5.20;;;3.60;;
12962;SDS011;6546;49.882;8.666;2023-02-28T05:55:40;3.97;;;3.57;;
12962;SDS011;6546;49.882;8.666;2023-02-28T05:58:07;4.60;;;3.57;;
12962;SDS011;6546;49.882;8.666;2023-02-28T06:00:33;4.00;;;3.60;;
12962;SDS011;6546;49.882;8.666;2023-02-28T06:03:01;4.73;;;3.27;;
12962;SDS011;6546;49.882;8.666;2023-02-28T06:05:29;3.97;;;3.47;;
12962;SDS011;6546;49.882;8.666;2023-02-28T06:07:55;3.83;;;3.40;;
12962;SDS011;6546;49.882;8.666;2023-02-28T06:10:22;5.90;;;4.10;;
12962;SDS011;6546;49.882;8.666;2023-02-28T06:12:48;3.87;;;3.53;;
12962;SDS011;6546;49.882;8.666;2023-02-28T06:15:15;5.63;;;3.80;;
12962;SDS011;6546;49.882;8.666;2023-02-28T06:17:42;4.40;;;3.70;;
12962;SDS011;6546;49.882;8.666;2023-02-28T06:20:11;4.40;;;3.53;;
12962;SDS011;6546;49.882;8.666;2023-02-28T06:22:40;5.53;;;3.60;;
12962;SDS011;6546;49.882;8.666;2023-02-28T06:25:06;4.30;;;3.90;;
12962;SDS011;6546;49.882;8.666;2023-02-28T06:27:34;4.17;;;3.60;;
12962;SDS011;6546;49.882;8.666;2023-02-28T06:30:00;7.07;;;3.80;;
12962;SDS011;6546;49.882;8.666;2023-02-28T06:32:27;5.60;;;3.40;;
12962;SDS011;6546;49.882;8.666;2023-02-28T06:34:54;6.60;;;3.73;;
12962;SDS011;6546;49.882;8.666;2023-02-28T06:37:22;5.27;;;3.83;;
12962;SDS011;6546;49.882;8.666;2023-02-28T06:39:53;4.90;;;4.17;;
12962;SDS011;6546;49.882;8.666;2023-02-28T06:42:20;4.20;;;3.80;;
12962;SDS011;6546;49.882;8.666;2023-02-28T06:44:49;4.53;;;3.50;;
12962;SDS011;6546;49.882;8.666;2023-02-28T06:47:16;4.80;;;3.80;;
12962;SDS011;6546;49.882;8.666;2023-02-28T06:49:43;4.70;;;3.53;;
12962;SDS011;6546;49.882;8.666;2023-02-28T06:52:10;4.50;;;3.63;;
12962;SDS011;6546;49.882;8.666;2023-02-28T06:54:36;4.23;;;3.83;;
12962;SDS011;6546;49.882;8.666;2023-02-28T06:57:04;5.20;;;4.13;;
12962;SDS011;6546;49.882;8.666;2023-02-28T06:59:31;5.97;;;3.80;;
12962;SDS011;6546;49.882;8.666;2023-02-28T07:01:58;3.90;;;3.50;;
12962;SDS011;6546;49.882;8.666;2023-02-28T07:04:25;7.13;;;3.43;;
12962;SDS011;6546;49.882;8.666;2023-02-28T07:06:52;4.17;;;3.43;;
12962;SDS011;6546;49.882;8.666;2023-02-28T07:09:21;4.20;;;3.23;;
12962;SDS011;6546;49.882;8.666;2023-02-28T07:11:47;3.60;;;3.30;;
12962;SDS011;6546;49.882;8.666;2023-02-28T07:14:15;6.30;;;3.43;;
12962;SDS011;6546;49.882;8.666;2023-02-28T07:16:42;4.20;;;3.50;;
12962;SDS011;6546;49.882;8.666;2023-02-28T07:19:09;6.03;;;4.80;;
12962;SDS011;6546;49.882;8.666;2023-02-28T07:21:36;5.57;;;3.70;;
12962;SDS011;6546;49.882;8.666;2023-02-28T07:24:03;6.33;;;3.40;;
12962;SDS011;6546;49.882;8.666;2023-02-28T07:26:30;4.87;;;3.33;;
12962;SDS011;6546;49.882;8.666;2023-02-28T07:28:59;4.03;;;3.23;;
12962;SDS011;6546;49.882;8.666;2023-02-28T07:31:27;3.67;;;3.30;;
12962;SDS011;6546;49.882;8.666;2023-02-28T07:33:53;5.90;;;2.80;;
12962;SDS011;6546;49.882;8.666;2023-02-28T07:36:21;3.43;;;2.80;;
12962;SDS011;6546;49.882;8.666;2023-02-28T07:38:48;4.67;;;3.40;;
12962;SDS011;6546;49.882;8.666;2023-02-28T07:41:16;3.20;;;2.90;;
12962;SDS011;6546;49.882;8.666;2023-02-28T07:43:43;5.23;;;3.20;;
12962;SDS011;6546;49.882;8.666;2023-02-28T07:46:11;3.37;;;3.07;;
12962;SDS011;6546;49.882;8.666;2023-02-28T07:48:41;3.60;;;3.20;;
12962;SDS011;6546;49.882;8.666;2023-02-28T07:51:08;4.37;;;3.03;;
12962;SDS011;6546;49.882;8.666;2023-02-28T07:53:35;3.80;;;2.63;;
12962;SDS011;6546;49.882;8.666;2023-02-28T07:56:02;3.23;;;2.93;;
12962;SDS011;6546;49.882;8.666;2023-02-28T07:58:29;4.57;;;3.33;;
12962;SDS011;6546;49.882;8.666;2023-02-28T08:00:56;3.37;;;3.07;;
12962;SDS011;6546;49.882;8.666;2023-02-28T08:03:23;5.07;;;3.03;;
12962;SDS011;6546;49.882;8.666;2023-02-28T08:05:52;3.67;;;3.23;;
12962;SDS011;6546;49.882;8.666;2023-02-28T08:08:18;3.73;;;3.00;;
12962;SDS011;6546;49.882;8.666;2023-02-28T08:10:45;4.77;;;3.20;;
12962;SDS011;6546;49.882;8.666;2023-02-28T08:13:12;4.47;;;2.80;;
12962;SDS011;6546;49.882;8.666;2023-02-28T08:15:40;4.87;;;3.07;;
12962;SDS011;6546;49.882;8.666;2023-02-28T08:18:07;3.87;;;3.10;;
12962;SDS011;6546;49.882;8.666;2023-02-28T08:20:33;4.57;;;3.03;;
12962;SDS011;6546;49.882;8.666;2023-02-28T08:23:01;5.17;;;3.53;;
12962;SDS011;6546;49.882;8.666;2023-02-28T08:25:28;5.20;;;3.00;;
12962;SDS011;6546;49.882;8.666;2023-02-28T08:27:54;3.33;;;3.00;;
12962;SDS011;6546;49.882;8.666;2023-02-28T08:30:21;3.47;;;3.17;;
12962;SDS011;6546;49.882;8.666;2023-02-28T08:32:47;3.67;;;3.00;;
12962;SDS011;6546;49.882;8.666;2023-02-28T08:35:14;3.00;;;2.70;;
12962;SDS011;6546;49.882;8.666;2023-02-28T08:37:41;3.83;;;3.30;;
12962;SDS011;6546;49.882;8.666;2023-02-28T08:40:10;3.97;;;3.03;;
12962;SDS011;6546;49.882;8.666;2023-02-28T08:42:43;4.23;;;3.33;;
12962;SDS011;6546;49.882;8.666;2023-02-28T08:45:10;3.83;;;2.97;;
12962;SDS011;6546;49.882;8.666;2023-02-28T08:47:37;3.80;;;3.00;;
12962;SDS011;6546;49.882;8.666;2023-02-28T08:50:04;3.77;;;3.20;;
12962;SDS011;6546;49.882;8.666;2023-02-28T08:52:31;4.17;;;3.13;;
12962;SDS011;6546;49.882;8.666;2023-02-28T08:54:58;3.87;;;3.33;;
12962;SDS011;6546;49.882;8.666;2023-02-28T08:57:26;4.70;;;3.33;;
12962;SDS011;6546;49.882;8.666;2023-02-28T08:59:53;5.27;;;4.00;;
12962;SDS011;6546;49.882;8.666;2023-02-28T09:02:19;5.73;;;3.67;;
12962;SDS011;6546;49.882;8.666;2023-02-28T09:04:46;5.23;;;4.10;;
12962;SDS011;6546;49.882;8.666;2023-02-28T09:07:12;4.93;;;3.90;;
12962;SDS011;6546;49.882;8.666;2023-02-28T09:09:39;4.20;;;3.80;;
12962;SDS011;6546;49.882;8.666;2023-02-28T09:12:18;6.07;;;4.60;;
12962;SDS011;6546;49.882;8.666;2023-02-28T09:14:46;5.63;;;4.03;;
12962;SDS011;6546;49.882;8.666;2023-02-28T09:17:13;6.97;;;4.10;;
12962;SDS011;6546;49.882;8.666;2023-02-28T09:19:40;4.80;;;4.30;;
12962;SDS011;6546;49.882;8.666;2023-02-28T09:22:07;5.23;;;4.43;;
12962;SDS011;6546;49.882;8.666;2023-02-28T09:24:34;5.33;;;4.60;;
12962;SDS011;6546;49.882;8.666;2023-02-28T09:27:01;5.23;;;4.50;;
12962;SDS011;6546;49.882;8.666;2023-02-28T09:29:28;6.77;;;4.73;;
12962;SDS011;6546;49.882;8.666;2023-02-28T09:31:56;6.00;;;4.50;;
12962;SDS011;6546;49.882;8.666;2023-02-28T09:34:23;6.10;;;5.30;;
12962;SDS011;6546;49.882;8.666;2023-02-28T09:36:50;7.17;;;4.80;;
12962;SDS011;6546;49.882;8.666;2023-02-28T09:39:19;5.43;;;4.50;;
12962;SDS011;6546;49.882;8.666;2023-02-28T09:41:47;5.50;;;4.63;;
12962;SDS011;6546;49.882;8.666;2023-02-28T09:44:20;5.03;;;4.53;;
12962;SDS011;6546;49.882;8.666;2023-02-28T09:46:55;6.10;;;4.87;;
12962;SDS011;6546;49.882;8.666;2023-02-28T09:49:28;5.90;;;5.27;;
12962;SDS011;6546;49.882;8.666;2023-02-28T09:51:59;5.60;;;4.60;;
12962;SDS011;6546;49.882;8.666;2023-02-28T09:54:30;5.63;;;4.57;;
12962;SDS011;6546;49.882;8.666;2023-02-28T09:56:59;6.93;;;4.97;;
12962;SDS011;6546;49.882;8.666;2023-02-28T09:59:42;5.77;;;5.13;;
12962;SDS011;6546;49.882;8.666;2023-02-28T10:02:32;6.70;;;4.80;;
12962;SDS011;6546;49.882;8.666;2023-02-28T10:05:15;6.20;;;5.10;;
12962;SDS011;6546;49.882;8.666;2023-02-28T10:07:49;6.00;;;5.00;;
12962;SDS011;6546;49.882;8.666;2023-02-28T10:10:24;5.87;;;5.27;;
12962;SDS011;6546;49.882;8.666;2023-02-28T10:12:56;10.27;;;5.83;;
12962;SDS011;6546;49.882;8.666;2023-02-28T10:15:25;5.80;;;5.20;;
12962;SDS011;6546;49.882;8.666;2023-02-28T10:17:58;6.27;;;4.73;;
12962;SDS011;6546;49.882;8.666;2023-02-28T10:20:28;5.80;;;5.20;;
12962;SDS011;6546;49.882;8.666;2023-02-28T10:23:00;6.60;;;4.90;;
12962;SDS011;6546;49.882;8.666;2023-02-28T10:25:32;6.47;;;4.93;;
12962;SDS011;6546;49.882;8.666;2023-02-28T10:28:01;5.33;;;4.73;;
12962;SDS011;6546;49.882;8.666;2023-02-28T10:30:34;6.73;;;5.10;;
12962;SDS011;6546;49.882;8.666;2023-02-28T10:33:04;6.10;;;4.70;;
12962;SDS011;6546;49.882;8.666;2023-02-28T10:35:31;10.13;;;4.80;;
12962;SDS011;6546;49.882;8.666;2023-02-28T10:37:59;5.50;;;4.80;;
12962;SDS011;6546;49.882;8.666;2023-02-28T10:40:35;5.07;;;4.47;;
12962;SDS011;6546;49.882;8.666;2023-02-28T10:43:03;6.13;;;4.87;;
12962;SDS011;6546;49.882;8.666;2023-02-28T10:45:31;5.63;;;4.90;;
12962;SDS011;6546;49.882;8.666;2023-02-28T10:48:00;5.87;;;5.03;;
12962;SDS011;6546;49.882;8.666;2023-02-28T10:50:32;6.13;;;5.03;;
12962;SDS011;6546;49.882;8.666;2023-02-28T10:53:10;6.30;;;5.17;;
12962;SDS011;6546;49.882;8.666;2023-02-28T10:55:55;6.03;;;4.87;;
12962;SDS011;6546;49.882;8.666;2023-02-28T10:58:22;6.00;;;5.03;;
12962;SDS011;6546;49.882;8.666;2023-02-28T11:00:50;6.07;;;5.23;;
12962;SDS011;6546;49.882;8.666;2023-02-28T11:03:25;7.23;;;5.37;;
12962;SDS011;6546;49.882;8.666;2023-02-28T11:05:57;6.20;;;5.00;;
12962;SDS011;6546;49.882;8.666;2023-02-28T11:08:24;6.20;;;4.73;;
12962;SDS011;6546;49.882;8.666;2023-02-28T11:10:55;6.90;;;5.57;;
12962;SDS011;6546;49.882;8.666;2023-02-28T11:13:28;5.87;;;4.53;;
12962;SDS011;6546;49.882;8.666;2023-02-28T11:15:59;5.53;;;5.03;;
12962;SDS011;6546;49.882;8.666;2023-02-28T11:18:29;7.70;;;5.27;;
12962;SDS011;6546;49.882;8.666;2023-02-28T11:21:02;7.53;;;4.73;;
12962;SDS011;6546;49.882;8.666;2023-02-28T11:23:30;5.90;;;4.87;;
12962;SDS011;6546;49.882;8.666;2023-02-28T11:26:00;5.80;;;5.30;;
12962;SDS011;6546;49.882;8.666;2023-02-28T11:28:30;6.87;;;4.97;;
12962;SDS011;6546;49.882;8.666;2023-02-28T11:31:03;5.87;;;4.80;;
12962;SDS011;6546;49.882;8.666;2023-02-28T11:33:40;6.10;;;4.80;;
12962;SDS011;6546;49.882;8.666;2023-02-28T11:36:12;6.17;;;5.20;;
12962;SDS011;6546;49.882;8.666;2023-02-28T11:38:41;7.03;;;5.80;;
12962;SDS011;6546;49.882;8.666;2023-02-28T11:44:03;5.63;;;4.97;;
12962;SDS011;6546;49.882;8.666;2023-02-28T11:46:41;6.53;;;5.60;;
12962;SDS011;6546;49.882;8.666;2023-02-28T11:49:27;6.47;;;5.50;;
12962;SDS011;6546;49.882;8.666;2023-02-28T11:52:04;5.70;;;5.03;;
12962;SDS011;6546;49.882;8.666;2023-02-28T11:54:48;7.00;;;4.90;;
12962;SDS011;6546;49.882;8.666;2023-02-28T11:57:31;6.63;;;4.80;;
12962;SDS011;6546;49.882;8.666;2023-02-28T12:00:07;6.13;;;5.17;;
12962;SDS011;6546;49.882;8.666;2023-02-28T12:02:50;6.63;;;4.73;;
12962;SDS011;6546;49.882;8.666;2023-02-28T12:05:24;6.47;;;5.23;;
12962;SDS011;6546;49.882;8.666;2023-02-28T12:08:02;6.17;;;5.53;;
12962;SDS011;6546;49.882;8.666;2023-02-28T12:10:38;6.13;;;4.70;;
12962;SDS011;6546;49.882;8.666;2023-02-28T12:13:20;6.33;;;4.87;;
12962;SDS011;6546;49.882;8.666;2023-02-28T12:15:59;5.70;;;4.50;;
12962;SDS011;6546;49.882;8.666;2023-02-28T12:18:51;5.40;;;4.70;;
12962;SDS011;6546;49.882;8.666;2023-02-28T12:21:31;5.10;;;4.33;;
12962;SDS011;6546;49.882;8.666;2023-02-28T12:24:18;6.37;;;4.90;;
12962;SDS011;6546;49.882;8.666;2023-02-28T12:26:59;5.20;;;4.70;;
12962;SDS011;6546;49.882;8.666;2023-02-28T12:29:32;6.43;;;4.70;;
12962;SDS011;6546;49.882;8.666;2023-02-28T12:32:04;7.20;;;5.30;;
12962;SDS011;6546;49.882;8.666;2023-02-28T12:34:36;6.83;;;6.13;;
12962;SDS011;6546;49.882;8.666;2023-02-28T12:37:06;8.27;;;7.30;;
12962;SDS011;6546;49.882;8.666;2023-02-28T12:39:39;7.07;;;5.97;;
12962;SDS011;6546;49.882;8.666;2023-02-28T12:42:10;7.07;;;6.13;;
12962;SDS011;6546;49.882;8.666;2023-02-28T12:44:42;6.57;;;5.30;;
12962;SDS011;6546;49.882;8.666;2023-02-28T12:47:13;7.00;;;6.20;;
12962;SDS011;6546;49.882;8.666;2023-02-28T12:49:42;6.70;;;5.63;;
12962;SDS011;6546;49.882;8.666;2023-02-28T12:52:13;9.13;;;5.67;;
12962;SDS011;6546;49.882;8.666;2023-02-28T12:54:46;6.50;;;5.50;;
12962;SDS011;6546;49.882;8.666;2023-02-28T12:57:22;5.73;;;5.13;;
12962;SDS011;6546;49.882;8.666;2023-02-28T12:59:55;7.03;;;5.53;;
12962;SDS011;6546;49.882;8.666;2023-02-28T13:05:46;7.67;;;6.03;;
12962;SDS011;6546;49.882;8.666;2023-02-28T13:08:36;7.83;;;6.60;;
12962;SDS011;6546;49.882;8.666;2023-02-28T13:11:24;7.40;;;6.70;;
12962;SDS011;6546;49.882;8.666;2023-02-28T13:13:57;6.83;;;6.13;;
12962;SDS011;6546;49.882;8.666;2023-02-28T13:16:25;7.80;;;6.07;;
12962;SDS011;6546;49.882;8.666;2023-02-28T13:18:52;7.43;;;6.20;;
12962;SDS011;6546;49.882;8.666;2023-02-28T13:21:40;7.50;;;6.17;;
12962;SDS011;6546;49.882;8.666;2023-02-28T13:24:09;10.27;;;6.50;;
12962;SDS011;6546;49.882;8.666;2023-02-28T13:29:43;6.17;;;5.60;;
12962;SDS011;6546;49.882;8.666;2023-02-28T13:32:20;6.47;;;5.60;;
12962;SDS011;6546;49.882;8.666;2023-02-28T13:35:14;6.77;;;5.90;;
12962;SDS011;6546;49.882;8.666;2023-02-28T13:38:17;6.93;;;5.70;;
12962;SDS011;6546;49.882;8.666;2023-02-28T13:40:49;6.87;;;6.17;;
12962;SDS011;6546;49.882;8.666;2023-02-28T13:43:16;8.23;;;6.80;;
12962;SDS011;6546;49.882;8.666;2023-02-28T13:48:37;6.33;;;5.63;;
12962;SDS011;6546;49.882;8.666;2023-02-28T13:57:05;6.87;;;5.97;;
12962;SDS011;6546;49.882;8.666;2023-02-28T13:59:46;6.37;;;5.63;;
12962;SDS011;6546;49.882;8.666;2023-02-28T14:02:31;6.10;;;5.37;;
12962;SDS011;6546;49.882;8.666;2023-02-28T14:05:13;6.27;;;5.37;;
12962;SDS011;6546;49.882;8.666;2023-02-28T14:07:43;6.10;;;5.50;;
12962;SDS011;6546;49.882;8.666;2023-02-28T14:10:21;8.30;;;5.63;;
12962;SDS011;6546;49.882;8.666;2023-02-28T14:12:57;5.80;;;5.30;;
12962;SDS011;6546;49.882;8.666;2023-02-28T14:15:27;7.07;;;5.77;;
12962;SDS011;6546;49.882;8.666;2023-02-28T14:21:02;8.03;;;5.23;;
12962;SDS011;6546;49.882;8.666;2023-02-28T14:33:05;6.43;;;5.70;;
12962;SDS011;6546;49.882;8.666;2023-02-28T14:35:53;6.33;;;5.33;;
12962;SDS011;6546;49.882;8.666;2023-02-28T14:38:30;6.07;;;5.47;;
12962;SDS011;6546;49.882;8.666;2023-02-28T14:41:02;6.23;;;5.53;;
12962;SDS011;6546;49.882;8.666;2023-02-28T14:43:32;6.20;;;5.60;;
12962;SDS011;6546;49.882;8.666;2023-02-28T14:46:00;6.07;;;5.43;;
12962;SDS011;6546;49.882;8.666;2023-02-28T14:48:28;6.60;;;5.43;;
12962;SDS011;6546;49.882;8.666;2023-02-28T14:50:57;6.33;;;5.17;;
12962;SDS011;6546;49.882;8.666;2023-02-28T14:53:26;5.83;;;5.10;;
12962;SDS011;6546;49.882;8.666;2023-02-28T14:55:55;6.23;;;5.63;;
12962;SDS011;6546;49.882;8.666;2023-02-28T14:58:23;6.07;;;5.17;;
12962;SDS011;6546;49.882;8.666;2023-02-28T15:00:52;7.93;;;6.03;;
12962;SDS011;6546;49.882;8.666;2023-02-28T15:03:21;6.40;;;5.73;;
12962;SDS011;6546;49.882;8.666;2023-02-28T15:05:51;8.23;;;6.03;;
12962;SDS011;6546;49.882;8.666;2023-02-28T15:08:20;6.87;;;6.00;;
12962;SDS011;6546;49.882;8.666;2023-02-28T15:10:50;7.07;;;5.73;;
12962;SDS011;6546;49.882;8.666;2023-02-28T15:13:20;6.23;;;5.07;;
12962;SDS011;6546;49.882;8.666;2023-02-28T15:15:48;5.80;;;5.20;;
12962;SDS011;6546;49.882;8.666;2023-02-28T15:18:24;7.60;;;5.43;;
12962;SDS011;6546;49.882;8.666;2023-02-28T15:20:57;9.37;;;6.20;;
12962;SDS011;6546;49.882;8.666;2023-02-28T15:23:29;5.30;;;4.80;;
12962;SDS011;6546;49.882;8.666;2023-02-28T15:25:57;6.23;;;5.50;;
12962;SDS011;6546;49.882;8.666;2023-02-28T15:28:24;8.10;;;6.63;;
12962;SDS011;6546;49.882;8.666;2023-02-28T15:30:52;6.17;;;5.23;;
12962;SDS011;6546;49.882;8.666;2023-02-28T15:33:22;7.70;;;5.53;;
12962;SDS011;6546;49.882;8.666;2023-02-28T15:35:50;7.83;;;5.47;;
12962;SDS011;6546;49.882;8.666;2023-02-28T15:38:18;6.27;;;5.17;;
12962;SDS011;6546;49.882;8.666;2023-02-28T15:40:51;6.80;;;5.07;;
12962;SDS011;6546;49.882;8.666;2023-02-28T15:43:23;5.57;;;5.07;;
12962;SDS011;6546;49.882;8.666;2023-02-28T15:45:53;6.33;;;5.30;;
12962;SDS011;6546;49.882;8.666;2023-02-28T15:48:24;7.13;;;5.37;;
12962;SDS011;6546;49.882;8.666;2023-02-28T15:50:54;6.70;;;5.03;;
12962;SDS011;6546;49.882;8.666;2023-02-28T15:53:22;5.80;;;5.00;;
12962;SDS011;6546;49.882;8.666;2023-02-28T15:55:54;8.23;;;5.03;;
12962;SDS011;6546;49.882;8.666;2023-02-28T15:58:24;7.70;;;5.40;;
12962;SDS011;6546;49.882;8.666;2023-02-28T16:01:01;6.30;;;5.20;;
12962;SDS011;6546;49.882;8.666;2023-02-28T16:03:40;8.20;;;5.43;;